X  Cerrar Datos meteorológicos de aviación METAR     EDDS Stuttgart Airport
Temperatura
14°C Temperatura
10°C Punto de rocío
77% Humedad



Viento
11 KM/H
7 MPH
3 M/S
6 NUDO



220°
SO
Condiciones actuales

Parcialmente nublado Parcialmente nublado
Presión 1023.92 (hPa) - 30.24 (inHg)
Visibilidad 6.2 (milla) - 10 (km)
Aeropuerto
Código de aeropuerto EDDS

localidad: Stuttgart Airport
Distancia: 10 (km)

Metar:
EDDS 301020Z 22006KT 130V290 9999 FEW016 BKN042 14/10 Q1024 NOSIG

Hora: 30-10-2020 11:20 CET